21.3°F
Current conditions from King Hill
Updated every 5 minutes
 
  Friday November 21, 2014

Station Historical Data
Daily Summary for April 26, 2011 Units:  Both    English   Metric
« Previous Day
Next Day »
Daily Weekly Monthly Yearly Custom
  High: Low: Average:
Temperature: 58.5 °F /  14.7 °C 49.0 °F /  9.4 °C 52.7 °F /  11.5 °C
Dew Point: 56.1 °F /  13.4 °C 47.3 °F /  8.5 °C 51.1 °F /  10.6 °C
Humidity: 96% 90% 94%
Wind Speed: 12.0mph /  19.3km/h - 2.5mph /  4km/h
Wind Gust: 24.0mph /  38.6km/h - -
Wind- - ESE
Pressure: 29.99 in /  1015.5 hPa 29.79 in /  1008.7 hPa -
Precipitation: 1.35 in /  34.3 mm    
Historical Graphs
 
 
Tabular Data for April 26, 2011
Time Temperature Dew Point Pressure Wind Wind Speed Wind Gust Humidity Daily Rainfall
00:00 49.2 °F /  9.6 °C 47.3 °F /  8.5 °C 29.99in /  1015.5hPa Calm   2.0mph /  3.2km/h 93% 0.10in /  2.5mm
00:05 49.3 °F /  9.6 °C 47.4 °F /  8.6 °C 29.99in /  1015.5hPa Calm   3.0mph /  4.8km/h 93% 0.00in /  0mm
02:05 49.0 °F /  9.4 °C 47.3 °F /  8.5 °C 29.93in /  1013.4hPa Calm   3.0mph /  4.8km/h 94% 0.14in /  3.6mm
02:10 49.2 °F /  9.6 °C 47.5 °F /  8.6 °C 29.93in /  1013.4hPa East 1.0mph /  1.6km/h 5.0mph /  8km/h 94% 0.14in /  3.6mm
02:15 49.2 °F /  9.6 °C 47.5 °F /  8.6 °C 29.93in /  1013.4hPa East 1.0mph /  1.6km/h 5.0mph /  8km/h 94% 0.15in /  3.8mm
02:20 49.2 °F /  9.6 °C 47.5 °F /  8.6 °C 29.92in /  1013.1hPa East 1.0mph /  1.6km/h 3.0mph /  4.8km/h 94% 0.16in /  4.1mm
02:25 49.2 °F /  9.6 °C 47.5 °F /  8.6 °C 29.92in /  1013.1hPa Calm   5.0mph /  8km/h 94% 0.16in /  4.1mm
02:30 49.2 °F /  9.6 °C 47.8 °F /  8.8 °C 29.92in /  1013.1hPa East 2.0mph /  3.2km/h 5.0mph /  8km/h 95% 0.16in /  4.1mm
02:35 49.2 °F /  9.6 °C 47.5 °F /  8.6 °C 29.91in /  1012.8hPa Calm   3.0mph /  4.8km/h 94% 0.16in /  4.1mm
02:40 49.2 °F /  9.6 °C 47.5 °F /  8.6 °C 29.91in /  1012.8hPa Calm   3.0mph /  4.8km/h 94% 0.17in /  4.3mm
02:45 49.2 °F /  9.6 °C 47.5 °F /  8.6 °C 29.91in /  1012.8hPa Calm   3.0mph /  4.8km/h 94% 0.18in /  4.6mm
02:50 49.2 °F /  9.6 °C 47.5 °F /  8.6 °C 29.92in /  1013.1hPa Calm   1.0mph /  1.6km/h 94% 0.18in /  4.6mm
02:55 49.3 °F /  9.6 °C 47.9 °F /  8.8 °C 29.91in /  1012.8hPa Calm   2.0mph /  3.2km/h 95% 0.18in /  4.6mm
03:00 49.3 °F /  9.6 °C 47.9 °F /  8.8 °C 29.91in /  1012.8hPa Calm   2.0mph /  3.2km/h 95% 0.18in /  4.6mm
03:05 49.2 °F /  9.6 °C 47.8 °F /  8.8 °C 29.91in /  1012.8hPa Calm   2.0mph /  3.2km/h 95% 0.18in /  4.6mm
03:10 49.2 °F /  9.6 °C 47.8 °F /  8.8 °C 29.90in /  1012.4hPa Calm   2.0mph /  3.2km/h 95% 0.19in /  4.8mm
03:15 49.2 °F /  9.6 °C 47.8 °F /  8.8 °C 29.90in /  1012.4hPa Calm   3.0mph /  4.8km/h 95% 0.19in /  4.8mm
03:20 49.3 °F /  9.6 °C 47.9 °F /  8.8 °C 29.89in /  1012.1hPa East 1.0mph /  1.6km/h 3.0mph /  4.8km/h 95% 0.20in /  5.1mm
03:25 49.5 °F /  9.7 °C 48.1 °F /  8.9 °C 29.89in /  1012.1hPa Calm   2.0mph /  3.2km/h 95% 0.20in /  5.1mm
03:30 49.4 °F /  9.7 °C 48.0 °F /  8.9 °C 29.89in /  1012.1hPa East 1.0mph /  1.6km/h 3.0mph /  4.8km/h 95% 0.20in /  5.1mm
03:35 49.4 °F /  9.7 °C 48.0 °F /  8.9 °C 29.89in /  1012.1hPa Calm   3.0mph /  4.8km/h 95% 0.20in /  5.1mm
03:40 49.4 °F /  9.7 °C 48.0 °F /  8.9 °C 29.89in /  1012.1hPa East 1.0mph /  1.6km/h 3.0mph /  4.8km/h 95% 0.20in /  5.1mm
03:45 49.4 °F /  9.7 °C 48.0 °F /  8.9 °C 29.89in /  1012.1hPa Calm   3.0mph /  4.8km/h 95% 0.20in /  5.1mm
03:50 49.3 °F /  9.6 °C 47.9 °F /  8.8 °C 29.89in /  1012.1hPa Calm     95% 0.21in /  5.3mm
04:00 49.2 °F /  9.6 °C 47.8 °F /  8.8 °C 29.88in /  1011.7hPa Calm   1.0mph /  1.6km/h 95% 0.21in /  5.3mm
04:05 49.2 °F /  9.6 °C 47.8 °F /  8.8 °C 29.88in /  1011.7hPa Calm     95% 0.22in /  5.6mm
04:10 49.2 °F /  9.6 °C 47.8 °F /  8.8 °C 29.89in /  1012.1hPa Calm     95% 0.22in /  5.6mm
04:15 49.3 °F /  9.6 °C 47.9 °F /  8.8 °C 29.89in /  1012.1hPa Calm     95% 0.22in /  5.6mm
04:20 49.4 °F /  9.7 °C 48.0 °F /  8.9 °C 29.89in /  1012.1hPa Calm   2.0mph /  3.2km/h 95% 0.22in /  5.6mm
04:25 49.5 °F /  9.7 °C 48.1 °F /  8.9 °C 29.89in /  1012.1hPa Calm   2.0mph /  3.2km/h 95% 0.22in /  5.6mm
04:30 49.6 °F /  9.8 °C 48.2 °F /  9 °C 29.89in /  1012.1hPa Calm   2.0mph /  3.2km/h 95% 0.22in /  5.6mm
04:35 49.6 °F /  9.8 °C 48.2 °F /  9 °C 29.88in /  1011.7hPa Calm   2.0mph /  3.2km/h 95% 0.22in /  5.6mm
04:40 49.5 °F /  9.7 °C 48.1 °F /  8.9 °C 29.89in /  1012.1hPa Calm     95% 0.22in /  5.6mm
04:45 49.4 °F /  9.7 °C 48.0 °F /  8.9 °C 29.89in /  1012.1hPa Calm     95% 0.23in /  5.8mm
04:50 49.4 °F /  9.7 °C 48.0 °F /  8.9 °C 29.89in /  1012.1hPa Calm     95% 0.24in /  6.1mm
04:55 49.5 °F /  9.7 °C 48.1 °F /  8.9 °C 29.89in /  1012.1hPa Calm     95% 0.24in /  6.1mm
05:00 49.6 °F /  9.8 °C 48.2 °F /  9 °C 29.89in /  1012.1hPa Calm     95% 0.25in /  6.4mm
05:05 49.5 °F /  9.7 °C 48.1 °F /  8.9 °C 29.89in /  1012.1hPa Calm     95% 0.26in /  6.6mm
05:10 49.4 °F /  9.7 °C 48.0 °F /  8.9 °C 29.89in /  1012.1hPa Calm     95% 0.26in /  6.6mm
05:15 49.4 °F /  9.7 °C 48.0 °F /  8.9 °C 29.88in /  1011.7hPa Calm     95% 0.27in /  6.9mm
05:20 49.5 °F /  9.7 °C 48.1 °F /  8.9 °C 29.89in /  1012.1hPa Calm   2.0mph /  3.2km/h 95% 0.28in /  7.1mm
05:30 49.6 °F /  9.8 °C 48.2 °F /  9 °C 29.89in /  1012.1hPa Calm   2.0mph /  3.2km/h 95% 0.30in /  7.6mm
05:35 49.6 °F /  9.8 °C 48.2 °F /  9 °C 29.90in /  1012.4hPa Calm     95% 0.30in /  7.6mm
05:40 49.5 °F /  9.7 °C 48.1 °F /  8.9 °C 29.90in /  1012.4hPa Calm     95% 0.30in /  7.6mm
05:45 49.5 °F /  9.7 °C 48.1 °F /  8.9 °C 29.90in /  1012.4hPa Calm     95% 0.31in /  7.9mm
05:50 49.6 °F /  9.8 °C 48.2 °F /  9 °C 29.90in /  1012.4hPa Calm   2.0mph /  3.2km/h 95% 0.32in /  8.1mm
05:55 49.6 °F /  9.8 °C 48.2 °F /  9 °C 29.90in /  1012.4hPa Calm   2.0mph /  3.2km/h 95% 0.34in /  8.6mm
06:00 49.6 °F /  9.8 °C 48.2 °F /  9 °C 29.90in /  1012.4hPa Calm   2.0mph /  3.2km/h 95% 0.34in /  8.6mm
06:05 49.7 °F /  9.8 °C 48.3 °F /  9.1 °C 29.90in /  1012.4hPa Calm   3.0mph /  4.8km/h 95% 0.36in /  9.1mm
06:10 49.8 °F /  9.9 °C 48.7 °F /  9.3 °C 29.90in /  1012.4hPa East 1.0mph /  1.6km/h 6.0mph /  9.7km/h 96% 0.36in /  9.1mm
06:14 49.9 °F /  9.9 °C 48.5 °F /  9.2 °C 29.90in /  1012.4hPa Calm   6.0mph /  9.7km/h 95% 0.36in /  9.1mm
06:20 49.9 °F /  9.9 °C 48.5 °F /  9.2 °C 29.90in /  1012.4hPa East 1.0mph /  1.6km/h 5.0mph /  8km/h 95% 0.36in /  9.1mm
06:25 49.9 °F /  9.9 °C 48.5 °F /  9.2 °C 29.91in /  1012.8hPa East 1.0mph /  1.6km/h 5.0mph /  8km/h 95% 0.36in /  9.1mm
06:30 49.9 °F /  9.9 °C 48.5 °F /  9.2 °C 29.90in /  1012.4hPa Calm   3.0mph /  4.8km/h 95% 0.36in /  9.1mm
06:35 49.9 °F /  9.9 °C 48.5 °F /  9.2 °C 29.91in /  1012.8hPa Calm   5.0mph /  8km/h 95% 0.36in /  9.1mm
06:40 49.9 °F /  9.9 °C 48.5 °F /  9.2 °C 29.91in /  1012.8hPa Calm   5.0mph /  8km/h 95% 0.36in /  9.1mm
06:45 49.9 °F /  9.9 °C 48.5 °F /  9.2 °C 29.90in /  1012.4hPa East 1.0mph /  1.6km/h 5.0mph /  8km/h 95% 0.37in /  9.4mm
06:50 49.9 °F /  9.9 °C 48.5 °F /  9.2 °C 29.90in /  1012.4hPa East 1.0mph /  1.6km/h 5.0mph /  8km/h 95% 0.37in /  9.4mm
06:55 49.9 °F /  9.9 °C 48.5 °F /  9.2 °C 29.91in /  1012.8hPa Calm   5.0mph /  8km/h 95% 0.37in /  9.4mm
07:00 49.9 °F /  9.9 °C 48.5 °F /  9.2 °C 29.91in /  1012.8hPa Calm   3.0mph /  4.8km/h 95% 0.37in /  9.4mm
07:05 49.9 °F /  9.9 °C 48.5 °F /  9.2 °C 29.91in /  1012.8hPa East 1.0mph /  1.6km/h 3.0mph /  4.8km/h 95% 0.37in /  9.4mm
07:09 49.9 °F /  9.9 °C 48.5 °F /  9.2 °C 29.91in /  1012.8hPa East 2.0mph /  3.2km/h 3.0mph /  4.8km/h 95% 0.37in /  9.4mm
07:15 49.9 °F /  9.9 °C 48.5 °F /  9.2 °C 29.91in /  1012.8hPa Calm   3.0mph /  4.8km/h 95% 0.37in /  9.4mm
07:20 49.9 °F /  9.9 °C 48.5 °F /  9.2 °C 29.91in /  1012.8hPa Calm   3.0mph /  4.8km/h 95% 0.37in /  9.4mm
07:24 49.9 °F /  9.9 °C 48.8 °F /  9.3 °C 29.91in /  1012.8hPa Calm   1.0mph /  1.6km/h 96% 0.37in /  9.4mm
07:30 50.0 °F /  10 °C 48.6 °F /  9.2 °C 29.92in /  1013.1hPa Calm   3.0mph /  4.8km/h 95% 0.37in /  9.4mm
07:35 50.0 °F /  10 °C 48.6 °F /  9.2 °C 29.92in /  1013.1hPa Calm   3.0mph /  4.8km/h 95% 0.37in /  9.4mm
07:45 50.0 °F /  10 °C 48.6 °F /  9.2 °C 29.92in /  1013.1hPa Calm   2.0mph /  3.2km/h 95% 0.37in /  9.4mm
07:49 50.0 °F /  10 °C 48.9 °F /  9.4 °C 29.92in /  1013.1hPa Calm   2.0mph /  3.2km/h 96% 0.37in /  9.4mm
07:55 50.1 °F /  10.1 °C 49.0 °F /  9.4 °C 29.92in /  1013.1hPa Calm   1.0mph /  1.6km/h 96% 0.37in /  9.4mm
08:00 50.2 °F /  10.1 °C 49.1 °F /  9.5 °C 29.92in /  1013.1hPa Calm   2.0mph /  3.2km/h 96% 0.37in /  9.4mm
08:05 50.3 °F /  10.2 °C 49.2 °F /  9.6 °C 29.92in /  1013.1hPa East 1.0mph /  1.6km/h 3.0mph /  4.8km/h 96% 0.37in /  9.4mm
08:10 50.3 °F /  10.2 °C 49.2 °F /  9.6 °C 29.92in /  1013.1hPa Calm   3.0mph /  4.8km/h 96% 0.37in /  9.4mm
08:15 50.3 °F /  10.2 °C 49.2 °F /  9.6 °C 29.92in /  1013.1hPa East 1.0mph /  1.6km/h 5.0mph /  8km/h 96% 0.37in /  9.4mm
08:20 50.5 °F /  10.3 °C 49.4 °F /  9.7 °C 29.92in /  1013.1hPa Calm   5.0mph /  8km/h 96% 0.37in /  9.4mm
08:25 50.5 °F /  10.3 °C 49.4 °F /  9.7 °C 29.93in /  1013.4hPa East 1.0mph /  1.6km/h 3.0mph /  4.8km/h 96% 0.37in /  9.4mm
08:30 50.4 °F /  10.2 °C 49.3 °F /  9.6 °C 29.93in /  1013.4hPa Calm   3.0mph /  4.8km/h 96% 0.37in /  9.4mm
08:35 50.5 °F /  10.3 °C 49.4 °F /  9.7 °C 29.93in /  1013.4hPa Calm   3.0mph /  4.8km/h 96% 0.37in /  9.4mm
08:40 50.6 °F /  10.3 °C 49.5 °F /  9.7 °C 29.93in /  1013.4hPa Calm   2.0mph /  3.2km/h 96% 0.37in /  9.4mm
08:45 50.7 °F /  10.4 °C 49.6 °F /  9.8 °C 29.93in /  1013.4hPa East 2.0mph /  3.2km/h 3.0mph /  4.8km/h 96% 0.37in /  9.4mm
08:50 50.7 °F /  10.4 °C 49.6 °F /  9.8 °C 29.94in /  1013.8hPa Calm   3.0mph /  4.8km/h 96% 0.37in /  9.4mm
08:55 50.7 °F /  10.4 °C 49.6 °F /  9.8 °C 29.93in /  1013.4hPa East 1.0mph /  1.6km/h 2.0mph /  3.2km/h 96% 0.37in /  9.4mm
09:00 50.8 °F /  10.4 °C 49.7 °F /  9.8 °C 29.93in /  1013.4hPa Calm   2.0mph /  3.2km/h 96% 0.37in /  9.4mm
09:05 50.7 °F /  10.4 °C 49.6 °F /  9.8 °C 29.94in /  1013.8hPa East 1.0mph /  1.6km/h 2.0mph /  3.2km/h 96% 0.37in /  9.4mm
09:09 50.8 °F /  10.4 °C 49.7 °F /  9.8 °C 29.94in /  1013.8hPa Calm   2.0mph /  3.2km/h 96% 0.37in /  9.4mm
09:15 50.7 °F /  10.4 °C 49.6 °F /  9.8 °C 29.94in /  1013.8hPa Calm   2.0mph /  3.2km/h 96% 0.37in /  9.4mm
09:20 50.8 °F /  10.4 °C 49.7 °F /  9.8 °C 29.94in /  1013.8hPa Calm   1.0mph /  1.6km/h 96% 0.37in /  9.4mm
09:25 50.8 °F /  10.4 °C 49.7 °F /  9.8 °C 29.94in /  1013.8hPa Calm   2.0mph /  3.2km/h 96% 0.37in /  9.4mm
09:29 51.0 °F /  10.6 °C 49.9 °F /  9.9 °C 29.94in /  1013.8hPa Calm   2.0mph /  3.2km/h 96% 0.37in /  9.4mm
09:35 51.0 °F /  10.6 °C 49.9 °F /  9.9 °C 29.94in /  1013.8hPa Calm   2.0mph /  3.2km/h 96% 0.37in /  9.4mm
09:40 51.0 °F /  10.6 °C 49.9 °F /  9.9 °C 29.94in /  1013.8hPa Calm   2.0mph /  3.2km/h 96% 0.37in /  9.4mm
09:45 51.0 °F /  10.6 °C 49.9 °F /  9.9 °C 29.93in /  1013.4hPa Calm   2.0mph /  3.2km/h 96% 0.37in /  9.4mm
09:50 51.2 °F /  10.7 °C 50.1 °F /  10.1 °C 29.93in /  1013.4hPa East 1.0mph /  1.6km/h 3.0mph /  4.8km/h 96% 0.37in /  9.4mm
09:55 51.3 °F /  10.7 °C 50.2 °F /  10.1 °C 29.93in /  1013.4hPa Calm   3.0mph /  4.8km/h 96% 0.37in /  9.4mm
09:59 51.3 °F /  10.7 °C 50.2 °F /  10.1 °C 29.93in /  1013.4hPa East 1.0mph /  1.6km/h 3.0mph /  4.8km/h 96% 0.37in /  9.4mm
10:05 51.2 °F /  10.7 °C 50.1 °F /  10.1 °C 29.93in /  1013.4hPa East 1.0mph /  1.6km/h 3.0mph /  4.8km/h 96% 0.37in /  9.4mm
10:10 51.2 °F /  10.7 °C 50.1 °F /  10.1 °C 29.93in /  1013.4hPa Calm   3.0mph /  4.8km/h 96% 0.37in /  9.4mm
10:14 51.4 °F /  10.8 °C 50.3 °F /  10.2 °C 29.93in /  1013.4hPa Calm   2.0mph /  3.2km/h 96% 0.37in /  9.4mm
10:20 51.4 °F /  10.8 °C 50.3 °F /  10.2 °C 29.93in /  1013.4hPa Calm   2.0mph /  3.2km/h 96% 0.37in /  9.4mm
10:25 51.6 °F /  10.9 °C 50.5 °F /  10.3 °C 29.93in /  1013.4hPa Calm   2.0mph /  3.2km/h 96% 0.37in /  9.4mm
10:30 51.6 °F /  10.9 °C 50.5 °F /  10.3 °C 29.93in /  1013.4hPa East 1.0mph /  1.6km/h 3.0mph /  4.8km/h 96% 0.37in /  9.4mm
10:35 51.6 °F /  10.9 °C 50.5 °F /  10.3 °C 29.93in /  1013.4hPa Calm   3.0mph /  4.8km/h 96% 0.37in /  9.4mm
10:40 51.5 °F /  10.8 °C 50.4 °F /  10.2 °C 29.93in /  1013.4hPa Calm   5.0mph /  8km/h 96% 0.37in /  9.4mm
10:45 51.7 °F /  10.9 °C 50.6 °F /  10.3 °C 29.93in /  1013.4hPa East 1.0mph /  1.6km/h 5.0mph /  8km/h 96% 0.37in /  9.4mm
10:50 51.8 °F /  11 °C 50.7 °F /  10.4 °C 29.93in /  1013.4hPa Calm   2.0mph /  3.2km/h 96% 0.37in /  9.4mm
10:55 51.9 °F /  11.1 °C 50.5 °F /  10.3 °C 29.93in /  1013.4hPa Calm   2.0mph /  3.2km/h 95% 0.37in /  9.4mm
10:59 52.1 °F /  11.2 °C 50.7 °F /  10.4 °C 29.93in /  1013.4hPa East 1.0mph /  1.6km/h 3.0mph /  4.8km/h 95% 0.37in /  9.4mm
11:05 52.1 °F /  11.2 °C 51.0 °F /  10.6 °C 29.94in /  1013.8hPa Calm   3.0mph /  4.8km/h 96% 0.37in /  9.4mm
11:10 52.3 °F /  11.3 °C 50.9 °F /  10.5 °C 29.94in /  1013.8hPa Calm     95% 0.37in /  9.4mm
11:15 52.3 °F /  11.3 °C 50.9 °F /  10.5 °C 29.94in /  1013.8hPa Calm   1.0mph /  1.6km/h 95% 0.37in /  9.4mm
11:20 52.4 °F /  11.3 °C 51.0 °F /  10.6 °C 29.93in /  1013.4hPa Calm   2.0mph /  3.2km/h 95% 0.37in /  9.4mm
11:25 52.5 °F /  11.4 °C 51.1 °F /  10.6 °C 29.93in /  1013.4hPa Calm   2.0mph /  3.2km/h 95% 0.37in /  9.4mm
11:30 52.7 °F /  11.5 °C 51.3 °F /  10.7 °C 29.93in /  1013.4hPa Calm   2.0mph /  3.2km/h 95% 0.37in /  9.4mm
11:35 52.9 °F /  11.6 °C 51.5 °F /  10.8 °C 29.92in /  1013.1hPa Calm   2.0mph /  3.2km/h 95% 0.37in /  9.4mm
11:40 53.0 °F /  11.7 °C 51.6 °F /  10.9 °C 29.92in /  1013.1hPa Calm   1.0mph /  1.6km/h 95% 0.37in /  9.4mm
11:44 52.9 °F /  11.6 °C 51.5 °F /  10.8 °C 29.92in /  1013.1hPa Calm   2.0mph /  3.2km/h 95% 0.37in /  9.4mm
11:50 52.8 °F /  11.6 °C 51.4 °F /  10.8 °C 29.93in /  1013.4hPa East 2.0mph /  3.2km/h 3.0mph /  4.8km/h 95% 0.37in /  9.4mm
11:55 52.8 °F /  11.6 °C 51.4 °F /  10.8 °C 29.93in /  1013.4hPa Calm   3.0mph /  4.8km/h 95% 0.37in /  9.4mm
12:00 52.9 °F /  11.6 °C 51.5 °F /  10.8 °C 29.93in /  1013.4hPa Calm   1.0mph /  1.6km/h 95% 0.37in /  9.4mm
12:05 52.9 °F /  11.6 °C 51.2 °F /  10.7 °C 29.93in /  1013.4hPa Calm   2.0mph /  3.2km/h 94% 0.37in /  9.4mm
12:09 52.7 °F /  11.5 °C 51.0 °F /  10.6 °C 29.93in /  1013.4hPa Calm   2.0mph /  3.2km/h 94% 0.37in /  9.4mm
12:14 52.8 °F /  11.6 °C 51.1 °F /  10.6 °C 29.93in /  1013.4hPa East 1.0mph /  1.6km/h 2.0mph /  3.2km/h 94% 0.37in /  9.4mm
12:20 52.9 °F /  11.6 °C 51.2 °F /  10.7 °C 29.93in /  1013.4hPa Calm   2.0mph /  3.2km/h 94% 0.37in /  9.4mm
12:24 53.0 °F /  11.7 °C 51.3 °F /  10.7 °C 29.93in /  1013.4hPa East 2.0mph /  3.2km/h 3.0mph /  4.8km/h 94% 0.37in /  9.4mm
12:30 53.1 °F /  11.7 °C 51.7 °F /  10.9 °C 29.93in /  1013.4hPa Calm   3.0mph /  4.8km/h 95% 0.37in /  9.4mm
12:34 53.2 °F /  11.8 °C 51.8 °F /  11 °C 29.93in /  1013.4hPa Calm   3.0mph /  4.8km/h 95% 0.37in /  9.4mm
12:40 53.2 °F /  11.8 °C 51.8 °F /  11 °C 29.93in /  1013.4hPa Calm   3.0mph /  4.8km/h 95% 0.37in /  9.4mm
12:45 53.2 °F /  11.8 °C 51.8 °F /  11 °C 29.93in /  1013.4hPa Calm   3.0mph /  4.8km/h 95% 0.37in /  9.4mm
12:49 53.0 °F /  11.7 °C 51.3 °F /  10.7 °C 29.93in /  1013.4hPa East 1.0mph /  1.6km/h 3.0mph /  4.8km/h 94% 0.37in /  9.4mm
12:55 53.1 °F /  11.7 °C 51.7 °F /  10.9 °C 29.92in /  1013.1hPa Calm   3.0mph /  4.8km/h 95% 0.37in /  9.4mm
12:59 53.0 °F /  11.7 °C 51.6 °F /  10.9 °C 29.92in /  1013.1hPa East 2.0mph /  3.2km/h 6.0mph /  9.7km/h 95% 0.37in /  9.4mm
13:04 53.0 °F /  11.7 °C 51.3 °F /  10.7 °C 29.92in /  1013.1hPa East 1.0mph /  1.6km/h 6.0mph /  9.7km/h 94% 0.37in /  9.4mm
13:10 53.0 °F /  11.7 °C 51.6 °F /  10.9 °C 29.92in /  1013.1hPa Calm   5.0mph /  8km/h 95% 0.37in /  9.4mm
13:14 53.1 °F /  11.7 °C 51.7 °F /  10.9 °C 29.92in /  1013.1hPa East 1.0mph /  1.6km/h 3.0mph /  4.8km/h 95% 0.37in /  9.4mm
13:19 53.0 °F /  11.7 °C 51.6 °F /  10.9 °C 29.92in /  1013.1hPa Calm   3.0mph /  4.8km/h 95% 0.37in /  9.4mm
13:25 53.0 °F /  11.7 °C 51.6 °F /  10.9 °C 29.92in /  1013.1hPa East 2.0mph /  3.2km/h 3.0mph /  4.8km/h 95% 0.37in /  9.4mm
13:30 52.9 °F /  11.6 °C 51.2 °F /  10.7 °C 29.92in /  1013.1hPa Calm   5.0mph /  8km/h 94% 0.37in /  9.4mm
13:35 52.9 °F /  11.6 °C 51.5 °F /  10.8 °C 29.92in /  1013.1hPa Calm   5.0mph /  8km/h 95% 0.37in /  9.4mm
13:39 53.0 °F /  11.7 °C 51.6 °F /  10.9 °C 29.92in /  1013.1hPa Calm   3.0mph /  4.8km/h 95% 0.37in /  9.4mm
13:45 53.1 °F /  11.7 °C 51.7 °F /  10.9 °C 29.92in /  1013.1hPa East 2.0mph /  3.2km/h 5.0mph /  8km/h 95% 0.37in /  9.4mm
13:49 53.1 °F /  11.7 °C 51.7 °F /  10.9 °C 29.92in /  1013.1hPa ENE 1.0mph /  1.6km/h 7.0mph /  11.3km/h 95% 0.37in /  9.4mm
13:55 53.1 °F /  11.7 °C 51.7 °F /  10.9 °C 29.92in /  1013.1hPa Calm   7.0mph /  11.3km/h 95% 0.37in /  9.4mm
13:59 53.2 °F /  11.8 °C 51.8 °F /  11 °C 29.92in /  1013.1hPa NE 2.0mph /  3.2km/h 6.0mph /  9.7km/h 95% 0.37in /  9.4mm
14:05 53.2 °F /  11.8 °C 51.8 °F /  11 °C 29.91in /  1012.8hPa Calm   5.0mph /  8km/h 95% 0.37in /  9.4mm
14:10 53.2 °F /  11.8 °C 51.8 °F /  11 °C 29.91in /  1012.8hPa NE 1.0mph /  1.6km/h 5.0mph /  8km/h 95% 0.37in /  9.4mm
14:15 53.2 °F /  11.8 °C 51.8 °F /  11 °C 29.91in /  1012.8hPa NE 1.0mph /  1.6km/h 5.0mph /  8km/h 95% 0.37in /  9.4mm
14:20 53.2 °F /  11.8 °C 51.8 °F /  11 °C 29.91in /  1012.8hPa NE 1.0mph /  1.6km/h 6.0mph /  9.7km/h 95% 0.37in /  9.4mm
14:25 53.5 °F /  11.9 °C 52.1 °F /  11.2 °C 29.91in /  1012.8hPa Calm   6.0mph /  9.7km/h 95% 0.37in /  9.4mm
14:30 53.8 °F /  12.1 °C 52.4 °F /  11.3 °C 29.91in /  1012.8hPa Calm   2.0mph /  3.2km/h 95% 0.37in /  9.4mm
14:35 53.7 °F /  12.1 °C 52.3 °F /  11.3 °C 29.91in /  1012.8hPa NE 3.0mph /  4.8km/h 7.0mph /  11.3km/h 95% 0.37in /  9.4mm
14:40 53.7 °F /  12.1 °C 52.0 °F /  11.1 °C 29.91in /  1012.8hPa ENE 1.0mph /  1.6km/h 7.0mph /  11.3km/h 94% 0.37in /  9.4mm
14:44 53.8 °F /  12.1 °C 52.1 °F /  11.2 °C 29.91in /  1012.8hPa Calm   7.0mph /  11.3km/h 94% 0.37in /  9.4mm
14:50 53.9 °F /  12.2 °C 52.2 °F /  11.2 °C 29.90in /  1012.4hPa ENE 2.0mph /  3.2km/h 9.0mph /  14.5km/h 94% 0.37in /  9.4mm
14:54 54.1 °F /  12.3 °C 52.4 °F /  11.3 °C 29.90in /  1012.4hPa NE 2.0mph /  3.2km/h 9.0mph /  14.5km/h 94% 0.37in /  9.4mm
14:59 54.2 °F /  12.3 °C 52.5 °F /  11.4 °C 29.90in /  1012.4hPa ENE 1.0mph /  1.6km/h 6.0mph /  9.7km/h 94% 0.37in /  9.4mm
15:04 54.4 °F /  12.4 °C 52.4 °F /  11.3 °C 29.90in /  1012.4hPa NE 1.0mph /  1.6km/h 6.0mph /  9.7km/h 93% 0.37in /  9.4mm
15:10 54.5 °F /  12.5 °C 52.5 °F /  11.4 °C 29.90in /  1012.4hPa ENE 2.0mph /  3.2km/h 6.0mph /  9.7km/h 93% 0.37in /  9.4mm
15:14 54.6 °F /  12.6 °C 52.6 °F /  11.4 °C 29.89in /  1012.1hPa Calm   5.0mph /  8km/h 93% 0.37in /  9.4mm
15:20 54.8 °F /  12.7 °C 52.8 °F /  11.6 °C 29.89in /  1012.1hPa ENE 1.0mph /  1.6km/h 7.0mph /  11.3km/h 93% 0.37in /  9.4mm
15:24 54.9 °F /  12.7 °C 52.6 °F /  11.4 °C 29.88in /  1011.7hPa NNE 3.0mph /  4.8km/h 8.0mph /  12.9km/h 92% 0.37in /  9.4mm
15:30 55.1 °F /  12.8 °C 52.8 °F /  11.6 °C 29.88in /  1011.7hPa ENE 1.0mph /  1.6km/h 8.0mph /  12.9km/h 92% 0.37in /  9.4mm
15:35 55.2 °F /  12.9 °C 52.6 °F /  11.4 °C 29.89in /  1012.1hPa NE 2.0mph /  3.2km/h 8.0mph /  12.9km/h 91% 0.37in /  9.4mm
15:39 55.0 °F /  12.8 °C 52.1 °F /  11.2 °C 29.88in /  1011.7hPa NE 2.0mph /  3.2km/h 8.0mph /  12.9km/h 90% 0.37in /  9.4mm
15:44 55.0 °F /  12.8 °C 52.4 °F /  11.3 °C 29.88in /  1011.7hPa Calm   8.0mph /  12.9km/h 91% 0.37in /  9.4mm
15:50 55.0 °F /  12.8 °C 52.1 °F /  11.2 °C 29.88in /  1011.7hPa Calm   5.0mph /  8km/h 90% 0.37in /  9.4mm
15:54 55.0 °F /  12.8 °C 52.1 °F /  11.2 °C 29.89in /  1012.1hPa NE 1.0mph /  1.6km/h 5.0mph /  8km/h 90% 0.37in /  9.4mm
16:00 54.9 °F /  12.7 °C 52.0 °F /  11.1 °C 29.89in /  1012.1hPa NNE 2.0mph /  3.2km/h 8.0mph /  12.9km/h 90% 0.37in /  9.4mm
16:04 55.0 °F /  12.8 °C 52.1 °F /  11.2 °C 29.88in /  1011.7hPa NE 1.0mph /  1.6km/h 8.0mph /  12.9km/h 90% 0.37in /  9.4mm
16:10 54.9 °F /  12.7 °C 52.0 °F /  11.1 °C 29.88in /  1011.7hPa ENE 2.0mph /  3.2km/h 5.0mph /  8km/h 90% 0.37in /  9.4mm
16:14 54.9 °F /  12.7 °C 52.0 °F /  11.1 °C 29.88in /  1011.7hPa Calm   5.0mph /  8km/h 90% 0.37in /  9.4mm
16:20 55.0 °F /  12.8 °C 52.1 °F /  11.2 °C 29.88in /  1011.7hPa ENE 1.0mph /  1.6km/h 5.0mph /  8km/h 90% 0.37in /  9.4mm
16:24 55.0 °F /  12.8 °C 52.1 °F /  11.2 °C 29.88in /  1011.7hPa Calm   5.0mph /  8km/h 90% 0.37in /  9.4mm
16:30 55.0 °F /  12.8 °C 52.1 °F /  11.2 °C 29.88in /  1011.7hPa ENE 2.0mph /  3.2km/h 5.0mph /  8km/h 90% 0.37in /  9.4mm
16:35 54.9 °F /  12.7 °C 52.0 °F /  11.1 °C 29.88in /  1011.7hPa Calm   5.0mph /  8km/h 90% 0.37in /  9.4mm
16:40 54.9 °F /  12.7 °C 52.0 °F /  11.1 °C 29.88in /  1011.7hPa ENE 1.0mph /  1.6km/h 4.0mph /  6.4km/h 90% 0.37in /  9.4mm
16:44 54.8 °F /  12.7 °C 51.9 °F /  11.1 °C 29.87in /  1011.4hPa Calm   4.0mph /  6.4km/h 90% 0.37in /  9.4mm
16:49 54.9 °F /  12.7 °C 52.0 °F /  11.1 °C 29.87in /  1011.4hPa Calm   4.0mph /  6.4km/h 90% 0.37in /  9.4mm
16:55 54.8 °F /  12.7 °C 51.9 °F /  11.1 °C 29.87in /  1011.4hPa Calm   1.0mph /  1.6km/h 90% 0.37in /  9.4mm
17:00 54.8 °F /  12.7 °C 51.9 °F /  11.1 °C 29.87in /  1011.4hPa Calm   2.0mph /  3.2km/h 90% 0.37in /  9.4mm
17:04 54.7 °F /  12.6 °C 51.8 °F /  11 °C 29.88in /  1011.7hPa Calm   3.0mph /  4.8km/h 90% 0.37in /  9.4mm
17:10 54.6 °F /  12.6 °C 51.7 °F /  10.9 °C 29.88in /  1011.7hPa Calm   3.0mph /  4.8km/h 90% 0.37in /  9.4mm
17:20 54.4 °F /  12.4 °C 51.5 °F /  10.8 °C 29.89in /  1012.1hPa ENE 2.0mph /  3.2km/h 4.0mph /  6.4km/h 90% 0.37in /  9.4mm
17:24 54.4 °F /  12.4 °C 51.5 °F /  10.8 °C 29.88in /  1011.7hPa Calm   3.0mph /  4.8km/h 90% 0.37in /  9.4mm
17:30 54.2 °F /  12.3 °C 51.3 °F /  10.7 °C 29.88in /  1011.7hPa Calm   3.0mph /  4.8km/h 90% 0.37in /  9.4mm
17:34 54.1 °F /  12.3 °C 51.5 °F /  10.8 °C 29.88in /  1011.7hPa ENE 1.0mph /  1.6km/h 3.0mph /  4.8km/h 91% 0.37in /  9.4mm
17:40 54.0 °F /  12.2 °C 51.4 °F /  10.8 °C 29.87in /  1011.4hPa ENE 1.0mph /  1.6km/h 5.0mph /  8km/h 91% 0.37in /  9.4mm
17:45 53.7 °F /  12.1 °C 50.8 °F /  10.4 °C 29.86in /  1011.1hPa NE 4.0mph /  6.4km/h 9.0mph /  14.5km/h 90% 0.37in /  9.4mm
17:49 53.5 °F /  11.9 °C 50.9 °F /  10.5 °C 29.86in /  1011.1hPa NE 2.0mph /  3.2km/h 9.0mph /  14.5km/h 91% 0.38in /  9.7mm
17:55 53.3 °F /  11.8 °C 50.7 °F /  10.4 °C 29.86in /  1011.1hPa NE 1.0mph /  1.6km/h 9.0mph /  14.5km/h 91% 0.38in /  9.7mm
17:59 53.2 °F /  11.8 °C 50.6 °F /  10.3 °C 29.86in /  1011.1hPa Calm   9.0mph /  14.5km/h 91% 0.38in /  9.7mm
18:04 53.1 °F /  11.7 °C 50.8 °F /  10.4 °C 29.85in /  1010.7hPa East 2.0mph /  3.2km/h 7.0mph /  11.3km/h 92% 0.38in /  9.7mm
18:10 53.0 °F /  11.7 °C 50.7 °F /  10.4 °C 29.84in /  1010.4hPa Calm   7.0mph /  11.3km/h 92% 0.38in /  9.7mm
18:14 53.0 °F /  11.7 °C 50.7 °F /  10.4 °C 29.85in /  1010.7hPa Calm   7.0mph /  11.3km/h 92% 0.38in /  9.7mm
18:20 52.9 °F /  11.6 °C 50.6 °F /  10.3 °C 29.84in /  1010.4hPa Calm   6.0mph /  9.7km/h 92% 0.38in /  9.7mm
18:24 52.9 °F /  11.6 °C 50.9 °F /  10.5 °C 29.84in /  1010.4hPa Calm   8.0mph /  12.9km/h 93% 0.39in /  9.9mm
18:30 53.0 °F /  11.7 °C 51.0 °F /  10.6 °C 29.84in /  1010.4hPa East 2.0mph /  3.2km/h 8.0mph /  12.9km/h 93% 0.39in /  9.9mm
18:35 53.0 °F /  11.7 °C 51.0 °F /  10.6 °C 29.85in /  1010.7hPa East 1.0mph /  1.6km/h 7.0mph /  11.3km/h 93% 0.40in /  10.2mm
18:39 53.0 °F /  11.7 °C 51.0 °F /  10.6 °C 29.85in /  1010.7hPa Calm   3.0mph /  4.8km/h 93% 0.41in /  10.4mm
18:45 53.0 °F /  11.7 °C 51.0 °F /  10.6 °C 29.85in /  1010.7hPa Calm   2.0mph /  3.2km/h 93% 0.42in /  10.7mm
18:50 52.9 °F /  11.6 °C 50.9 °F /  10.5 °C 29.87in /  1011.4hPa Calm   1.0mph /  1.6km/h 93% 0.44in /  11.2mm
18:55 52.9 °F /  11.6 °C 50.9 °F /  10.5 °C 29.87in /  1011.4hPa Calm   2.0mph /  3.2km/h 93% 0.44in /  11.2mm
18:59 52.9 °F /  11.6 °C 51.2 °F /  10.7 °C 29.85in /  1010.7hPa East 1.0mph /  1.6km/h 5.0mph /  8km/h 94% 0.48in /  12.2mm
19:04 53.7 °F /  12.1 °C 52.3 °F /  11.3 °C 29.84in /  1010.4hPa SSE 5.0mph /  8km/h 11.0mph /  17.7km/h 95% 0.51in /  13mm
19:10 54.1 °F /  12.3 °C 52.7 °F /  11.5 °C 29.81in /  1009.4hPa SE 5.0mph /  8km/h 11.0mph /  17.7km/h 95% 0.53in /  13.5mm
19:14 54.0 °F /  12.2 °C 52.6 °F /  11.4 °C 29.80in /  1009hPa SSE 6.0mph /  9.7km/h 12.0mph /  19.3km/h 95% 0.54in /  13.7mm
19:20 54.5 °F /  12.5 °C 53.1 °F /  11.7 °C 29.81in /  1009.4hPa South 4.0mph /  6.4km/h 13.0mph /  20.9km/h 95% 0.55in /  14mm
19:24 54.9 °F /  12.7 °C 53.5 °F /  11.9 °C 29.80in /  1009hPa South 1.0mph /  1.6km/h 13.0mph /  20.9km/h 95% 0.56in /  14.2mm
19:30 55.4 °F /  13 °C 54.0 °F /  12.2 °C 29.80in /  1009hPa SSE 4.0mph /  6.4km/h 8.0mph /  12.9km/h 95% 0.57in /  14.5mm
19:35 55.7 °F /  13.2 °C 54.3 °F /  12.4 °C 29.80in /  1009hPa SSE 2.0mph /  3.2km/h 8.0mph /  12.9km/h 95% 0.58in /  14.7mm
19:40 56.1 °F /  13.4 °C 54.7 °F /  12.6 °C 29.80in /  1009hPa South 3.0mph /  4.8km/h 6.0mph /  9.7km/h 95% 0.60in /  15.2mm
19:44 56.2 °F /  13.4 °C 54.8 °F /  12.7 °C 29.79in /  1008.7hPa South 4.0mph /  6.4km/h 10.0mph /  16.1km/h 95% 0.60in /  15.2mm
19:50 56.4 °F /  13.6 °C 55.0 °F /  12.8 °C 29.80in /  1009hPa South 10.0mph /  16.1km/h 17.0mph /  27.4km/h 95% 0.61in /  15.5mm
19:55 56.5 °F /  13.6 °C 55.1 °F /  12.8 °C 29.81in /  1009.4hPa South 7.0mph /  11.3km/h 17.0mph /  27.4km/h 95% 0.62in /  15.7mm
20:00 56.7 °F /  13.7 °C 55.3 °F /  12.9 °C 29.82in /  1009.7hPa South 8.0mph /  12.9km/h 17.0mph /  27.4km/h 95% 0.62in /  15.7mm
20:05 56.8 °F /  13.8 °C 55.4 °F /  13 °C 29.81in /  1009.4hPa SSW 2.0mph /  3.2km/h 15.0mph /  24.1km/h 95% 0.64in /  16.3mm
20:10 57.0 °F /  13.9 °C 55.6 °F /  13.1 °C 29.80in /  1009hPa SSW 5.0mph /  8km/h 15.0mph /  24.1km/h 95% 0.65in /  16.5mm
20:15 57.1 °F /  13.9 °C 55.7 °F /  13.2 °C 29.80in /  1009hPa Calm   11.0mph /  17.7km/h 95% 0.66in /  16.8mm
20:20 57.4 °F /  14.1 °C 55.7 °F /  13.2 °C 29.80in /  1009hPa SE 1.0mph /  1.6km/h 11.0mph /  17.7km/h 94% 0.66in /  16.8mm
20:25 57.7 °F /  14.3 °C 56.0 °F /  13.3 °C 29.79in /  1008.7hPa SE 3.0mph /  4.8km/h 11.0mph /  17.7km/h 94% 0.66in /  16.8mm
20:30 58.1 °F /  14.5 °C 56.1 °F /  13.4 °C 29.79in /  1008.7hPa SSE 4.0mph /  6.4km/h 13.0mph /  20.9km/h 93% 0.66in /  16.8mm
20:35 58.3 °F /  14.6 °C 56.0 °F /  13.3 °C 29.80in /  1009hPa South 4.0mph /  6.4km/h 13.0mph /  20.9km/h 92% 0.66in /  16.8mm
20:40 58.5 °F /  14.7 °C 55.9 °F /  13.3 °C 29.80in /  1009hPa SW 4.0mph /  6.4km/h 9.0mph /  14.5km/h 91% 0.66in /  16.8mm
20:45 58.4 °F /  14.7 °C 55.8 °F /  13.2 °C 29.80in /  1009hPa South 3.0mph /  4.8km/h 8.0mph /  12.9km/h 91% 0.68in /  17.3mm
20:50 58.1 °F /  14.5 °C 55.5 °F /  13.1 °C 29.80in /  1009hPa Calm   8.0mph /  12.9km/h 91% 0.68in /  17.3mm
20:55 57.9 °F /  14.4 °C 55.3 °F /  12.9 °C 29.80in /  1009hPa SSW 1.0mph /  1.6km/h 6.0mph /  9.7km/h 91% 0.68in /  17.3mm
21:00 57.9 °F /  14.4 °C 55.6 °F /  13.1 °C 29.80in /  1009hPa South 2.0mph /  3.2km/h 7.0mph /  11.3km/h 92% 0.68in /  17.3mm
21:05 58.0 °F /  14.4 °C 55.7 °F /  13.2 °C 29.80in /  1009hPa SSW 3.0mph /  4.8km/h 7.0mph /  11.3km/h 92% 0.68in /  17.3mm
21:10 58.1 °F /  14.5 °C 55.8 °F /  13.2 °C 29.81in /  1009.4hPa SSW 5.0mph /  8km/h 9.0mph /  14.5km/h 92% 0.69in /  17.5mm
21:20 57.8 °F /  14.3 °C 55.5 °F /  13.1 °C 29.81in /  1009.4hPa SSW 3.0mph /  4.8km/h 7.0mph /  11.3km/h 92% 0.69in /  17.5mm
21:25 57.7 °F /  14.3 °C 55.7 °F /  13.2 °C 29.81in /  1009.4hPa South 2.0mph /  3.2km/h 7.0mph /  11.3km/h 93% 0.72in /  18.3mm
21:30 57.7 °F /  14.3 °C 55.7 °F /  13.2 °C 29.82in /  1009.7hPa South 2.0mph /  3.2km/h 8.0mph /  12.9km/h 93% 0.72in /  18.3mm
21:35 57.6 °F /  14.2 °C 55.6 °F /  13.1 °C 29.81in /  1009.4hPa South 1.0mph /  1.6km/h 8.0mph /  12.9km/h 93% 0.72in /  18.3mm
21:40 57.5 °F /  14.2 °C 55.2 °F /  12.9 °C 29.81in /  1009.4hPa South 1.0mph /  1.6km/h 6.0mph /  9.7km/h 92% 0.72in /  18.3mm
21:45 57.2 °F /  14 °C 55.2 °F /  12.9 °C 29.83in /  1010hPa South 2.0mph /  3.2km/h 5.0mph /  8km/h 93% 0.72in /  18.3mm
21:50 57.3 °F /  14.1 °C 55.3 °F /  12.9 °C 29.82in /  1009.7hPa Calm   6.0mph /  9.7km/h 93% 0.72in /  18.3mm
21:55 57.2 °F /  14 °C 55.2 °F /  12.9 °C 29.83in /  1010hPa SSW 1.0mph /  1.6km/h 6.0mph /  9.7km/h 93% 0.72in /  18.3mm
22:05 55.5 °F /  13.1 °C 52.9 °F /  11.6 °C 29.90in /  1012.4hPa WNW 11.0mph /  17.7km/h 24.0mph /  38.6km/h 91% 0.72in /  18.3mm
22:10 54.4 °F /  12.4 °C 52.1 °F /  11.2 °C 29.90in /  1012.4hPa WNW 12.0mph /  19.3km/h 24.0mph /  38.6km/h 92% 0.75in /  19.1mm
22:15 54.4 °F /  12.4 °C 52.4 °F /  11.3 °C 29.90in /  1012.4hPa WNW 6.0mph /  9.7km/h 22.0mph /  35.4km/h 93% 0.80in /  20.3mm
22:20 54.6 °F /  12.6 °C 52.9 °F /  11.6 °C 29.89in /  1012.1hPa WSW 5.0mph /  8km/h 21.0mph /  33.8km/h 94% 0.85in /  21.6mm
22:25 54.9 °F /  12.7 °C 53.2 °F /  11.8 °C 29.88in /  1011.7hPa SSW 2.0mph /  3.2km/h 10.0mph /  16.1km/h 94% 0.90in /  22.9mm
22:30 55.1 °F /  12.8 °C 53.4 °F /  11.9 °C 29.87in /  1011.4hPa South 4.0mph /  6.4km/h 9.0mph /  14.5km/h 94% 0.94in /  23.9mm
22:35 55.6 °F /  13.1 °C 54.2 °F /  12.3 °C 29.87in /  1011.4hPa South 5.0mph /  8km/h 9.0mph /  14.5km/h 95% 0.99in /  25.1mm
22:40 55.8 °F /  13.2 °C 54.4 °F /  12.4 °C 29.87in /  1011.4hPa South 6.0mph /  9.7km/h 9.0mph /  14.5km/h 95% 1.02in /  25.9mm
22:45 55.9 °F /  13.3 °C 54.5 °F /  12.5 °C 29.86in /  1011.1hPa South 6.0mph /  9.7km/h 11.0mph /  17.7km/h 95% 1.04in /  26.4mm
22:50 55.8 °F /  13.2 °C 54.4 °F /  12.4 °C 29.86in /  1011.1hPa South 7.0mph /  11.3km/h 14.0mph /  22.5km/h 95% 1.06in /  26.9mm
22:55 55.7 °F /  13.2 °C 54.3 °F /  12.4 °C 29.86in /  1011.1hPa South 7.0mph /  11.3km/h 14.0mph /  22.5km/h 95% 1.08in /  27.4mm
23:00 55.8 °F /  13.2 °C 54.4 °F /  12.4 °C 29.87in /  1011.4hPa SSW 5.0mph /  8km/h 13.0mph /  20.9km/h 95% 1.10in /  27.9mm
23:05 56.0 °F /  13.3 °C 54.6 °F /  12.6 °C 29.86in /  1011.1hPa South 4.0mph /  6.4km/h 10.0mph /  16.1km/h 95% 1.12in /  28.4mm
23:10 56.0 °F /  13.3 °C 54.6 °F /  12.6 °C 29.86in /  1011.1hPa SSW 3.0mph /  4.8km/h 10.0mph /  16.1km/h 95% 1.13in /  28.7mm
23:15 56.1 °F /  13.4 °C 54.7 °F /  12.6 °C 29.85in /  1010.7hPa Calm   8.0mph /  12.9km/h 95% 1.16in /  29.5mm
23:20 56.0 °F /  13.3 °C 54.6 °F /  12.6 °C 29.86in /  1011.1hPa SSE 1.0mph /  1.6km/h 6.0mph /  9.7km/h 95% 1.19in /  30.2mm
23:25 55.9 °F /  13.3 °C 54.5 °F /  12.5 °C 29.85in /  1010.7hPa Calm   4.0mph /  6.4km/h 95% 1.22in /  31mm
23:30 56.0 °F /  13.3 °C 54.6 °F /  12.6 °C 29.85in /  1010.7hPa Calm   4.0mph /  6.4km/h 95% 1.24in /  31.5mm
23:35 56.3 °F /  13.5 °C 54.9 °F /  12.7 °C 29.85in /  1010.7hPa SE 1.0mph /  1.6km/h 4.0mph /  6.4km/h 95% 1.26in /  32mm
23:45 56.0 °F /  13.3 °C 54.6 °F /  12.6 °C 29.85in /  1010.7hPa Calm     95% 1.30in /  33mm
23:50 55.8 °F /  13.2 °C 54.4 °F /  12.4 °C 29.85in /  1010.7hPa Calm     95% 1.32in /  33.5mm
23:55 55.6 °F /  13.1 °C 54.2 °F /  12.3 °C 29.85in /  1010.7hPa SE 1.0mph /  1.6km/h 2.0mph /  3.2km/h 95% 1.35in /  34.3mm
Westford Weather
Compliments of Weather Underground

 
 
Current Radar Loop:

Copyright © WestfordWeather.net 2007-2014. All rights reserved.